PWSweather.com
Personal Weather Stations
Station Observations

KentGB

Lat: 51.355058, Lon: 1.256518

Elevation: 24

Station Type: Davis

http://stnichweather.co.uk

High Low Average
Temperature 77.7°F25.4°C 62.1°F16.7°C 68.9°F20.5°C
Dew Point 67.4°F19.7°C 61.5°F16.4°C 64.1°F17.8°C
Winds 7.0 mph 11.3 kmh Calm Calm 1.0 mph S1.6 kmh S
Wind Gusts 12.0 mph19.3 kmh -- 5.0 mph8.0 kmh
Humidity 100% 64% 86%
Pressure 30.08 in1018.6 mb 30.02 in1016.6 mb -
Precipitation 0.00 in0.0 mm - -
Hour Temp Dew Point Humidity Winds Wind Gusts Pressure Precip Precip Rate Daily Precip Total
12:00 AM 63.5°F17.5°C 63.5°F17.5°C 100% Calm Calm 2.0 mph3.2 kmh 30.02 in1016.6 mb 0.00 in0.0 mm 0.00 in0.0 mm 0.00 in0.0 mm
12:15 AM 63.1°F17.3°C 63.1°F17.3°C 100% 1.0 mph SW1.6 kmh SW 5.0 mph8.0 kmh 30.02 in1016.6 mb 0.00 in0.0 mm 0.00 in0.0 mm 0.00 in0.0 mm
12:30 AM 63.1°F17.3°C 63.1°F17.3°C 100% Calm Calm 2.0 mph3.2 kmh 30.02 in1016.6 mb 0.00 in0.0 mm 0.00 in0.0 mm 0.00 in0.0 mm
12:45 AM 62.6°F17.0°C 62.6°F17.0°C 100% Calm Calm 2.0 mph3.2 kmh 30.02 in1016.6 mb 0.00 in0.0 mm 0.00 in0.0 mm 0.00 in0.0 mm
01:00 AM 62.6°F17.0°C 62.6°F17.0°C 100% Calm Calm -- 30.02 in1016.6 mb 0.00 in0.0 mm 0.00 in0.0 mm 0.00 in0.0 mm
01:15 AM 62.4°F16.9°C 62.4°F16.9°C 100% Calm Calm 1.0 mph1.6 kmh 30.02 in1016.6 mb 0.00 in0.0 mm 0.00 in0.0 mm 0.00 in0.0 mm
01:30 AM 62.4°F16.9°C 62.4°F16.9°C 100% Calm Calm 1.0 mph1.6 kmh 30.02 in1016.6 mb 0.00 in0.0 mm 0.00 in0.0 mm 0.00 in0.0 mm
01:45 AM 62.1°F16.7°C 62.1°F16.7°C 100% Calm Calm 2.0 mph3.2 kmh 30.02 in1016.6 mb 0.00 in0.0 mm 0.00 in0.0 mm 0.00 in0.0 mm
02:00 AM 62.4°F16.9°C 62.4°F16.9°C 100% 1.0 mph SW1.6 kmh SW 6.0 mph9.7 kmh 30.02 in1016.6 mb 0.00 in0.0 mm 0.00 in0.0 mm 0.00 in0.0 mm
02:15 AM 62.1°F16.7°C 62.1°F16.7°C 100% Calm Calm 2.0 mph3.2 kmh 30.02 in1016.6 mb 0.00 in0.0 mm 0.00 in0.0 mm 0.00 in0.0 mm
02:30 AM 63.0°F17.2°C 63.0°F17.2°C 100% 1.0 mph SW1.6 kmh SW 5.0 mph8.0 kmh 30.02 in1016.6 mb 0.00 in0.0 mm 0.00 in0.0 mm 0.00 in0.0 mm
02:45 AM 63.0°F17.2°C 63.0°F17.2°C 100% Calm Calm 1.0 mph1.6 kmh 30.02 in1016.6 mb 0.00 in0.0 mm 0.00 in0.0 mm 0.00 in0.0 mm
03:00 AM 62.8°F17.1°C 62.8°F17.1°C 100% Calm Calm -- 30.02 in1016.6 mb 0.00 in0.0 mm 0.00 in0.0 mm 0.00 in0.0 mm
03:15 AM 63.1°F17.3°C 63.1°F17.3°C 100% Calm Calm 3.0 mph4.8 kmh 30.02 in1016.6 mb 0.00 in0.0 mm 0.00 in0.0 mm 0.00 in0.0 mm
03:30 AM 63.3°F17.4°C 63.3°F17.4°C 100% Calm Calm 2.0 mph3.2 kmh 30.02 in1016.6 mb 0.00 in0.0 mm 0.00 in0.0 mm 0.00 in0.0 mm
03:45 AM 63.5°F17.5°C 63.5°F17.5°C 100% Calm Calm 2.0 mph3.2 kmh 30.02 in1016.6 mb 0.00 in0.0 mm 0.00 in0.0 mm 0.00 in0.0 mm
04:00 AM 64.0°F17.8°C 64.0°F17.8°C 100% 1.0 mph SW1.6 kmh SW 3.0 mph4.8 kmh 30.02 in1016.6 mb 0.00 in0.0 mm 0.00 in0.0 mm 0.00 in0.0 mm
04:15 AM 64.0°F17.8°C 64.0°F17.8°C 100% Calm Calm -- 30.02 in1016.6 mb 0.00 in0.0 mm 0.00 in0.0 mm 0.00 in0.0 mm
04:30 AM 64.2°F17.9°C 64.2°F17.9°C 100% Calm Calm -- 30.02 in1016.6 mb 0.00 in0.0 mm 0.00 in0.0 mm 0.00 in0.0 mm
04:45 AM 64.0°F17.8°C 64.0°F17.8°C 100% Calm Calm -- 30.02 in1016.6 mb 0.00 in0.0 mm 0.00 in0.0 mm 0.00 in0.0 mm
05:00 AM 64.2°F17.9°C 64.2°F17.9°C 100% Calm Calm -- 30.02 in1016.6 mb 0.00 in0.0 mm 0.00 in0.0 mm 0.00 in0.0 mm
05:15 AM 64.2°F17.9°C 64.2°F17.9°C 100% Calm Calm -- 30.03 in1016.9 mb 0.00 in0.0 mm 0.00 in0.0 mm 0.00 in0.0 mm
05:30 AM 64.6°F18.1°C 64.3°F17.9°C 99% Calm Calm 3.0 mph4.8 kmh 30.03 in1016.9 mb 0.00 in0.0 mm 0.00 in0.0 mm 0.00 in0.0 mm
05:45 AM 64.8°F18.2°C 63.9°F17.7°C 97% 2.0 mph SW3.2 kmh SW 6.0 mph9.7 kmh 30.04 in1017.3 mb 0.00 in0.0 mm 0.00 in0.0 mm 0.00 in0.0 mm
06:00 AM 65.3°F18.5°C 63.5°F17.5°C 94% 1.0 mph W1.6 kmh W 5.0 mph8.0 kmh 30.04 in1017.3 mb 0.00 in0.0 mm 0.00 in0.0 mm 0.00 in0.0 mm
06:15 AM 65.7°F18.7°C 63.3°F17.4°C 92% 1.0 mph WNW1.6 kmh WNW 5.0 mph8.0 kmh 30.05 in1017.6 mb 0.00 in0.0 mm 0.00 in0.0 mm 0.00 in0.0 mm
06:30 AM 66.0°F18.9°C 63.3°F17.4°C 91% Calm Calm 2.0 mph3.2 kmh 30.05 in1017.6 mb 0.00 in0.0 mm 0.00 in0.0 mm 0.00 in0.0 mm
06:45 AM 66.4°F19.1°C 63.7°F17.6°C 91% Calm Calm 3.0 mph4.8 kmh 30.05 in1017.6 mb 0.00 in0.0 mm 0.00 in0.0 mm 0.00 in0.0 mm
07:00 AM 66.4°F19.1°C 63.4°F17.4°C 90% Calm Calm 2.0 mph3.2 kmh 30.06 in1017.9 mb 0.00 in0.0 mm 0.00 in0.0 mm 0.00 in0.0 mm
07:15 AM 66.6°F19.2°C 63.5°F17.5°C 90% Calm Calm -- 30.06 in1017.9 mb 0.00 in0.0 mm 0.00 in0.0 mm 0.00 in0.0 mm
07:30 AM 66.6°F19.2°C 63.2°F17.3°C 89% 1.0 mph WNW1.6 kmh WNW 3.0 mph4.8 kmh 30.06 in1017.9 mb 0.00 in0.0 mm 0.00 in0.0 mm 0.00 in0.0 mm
07:45 AM 66.7°F19.3°C 63.4°F17.4°C 89% Calm Calm 3.0 mph4.8 kmh 30.06 in1017.9 mb 0.00 in0.0 mm 0.00 in0.0 mm 0.00 in0.0 mm
08:00 AM 67.1°F19.5°C 63.1°F17.3°C 87% 1.0 mph WNW1.6 kmh WNW 3.0 mph4.8 kmh 30.06 in1017.9 mb 0.00 in0.0 mm 0.00 in0.0 mm 0.00 in0.0 mm
08:15 AM 67.6°F19.8°C 63.3°F17.4°C 86% 1.0 mph WNW1.6 kmh WNW 4.0 mph6.4 kmh 30.06 in1017.9 mb 0.00 in0.0 mm 0.00 in0.0 mm 0.00 in0.0 mm
08:30 AM 68.4°F20.2°C 63.7°F17.6°C 85% 1.0 mph WNW1.6 kmh WNW 6.0 mph9.7 kmh 30.07 in1018.3 mb 0.00 in0.0 mm 0.00 in0.0 mm 0.00 in0.0 mm
08:45 AM 68.7°F20.4°C 63.0°F17.2°C 82% 1.0 mph NW1.6 kmh NW 3.0 mph4.8 kmh 30.07 in1018.3 mb 0.00 in0.0 mm 0.00 in0.0 mm 0.00 in0.0 mm
09:00 AM 68.9°F20.5°C 62.5°F16.9°C 80% 2.0 mph NW3.2 kmh NW 6.0 mph9.7 kmh 30.07 in1018.3 mb 0.00 in0.0 mm 0.00 in0.0 mm 0.00 in0.0 mm
09:15 AM 70.0°F21.1°C 62.8°F17.1°C 78% 2.0 mph NW3.2 kmh NW 6.0 mph9.7 kmh 30.07 in1018.3 mb 0.00 in0.0 mm 0.00 in0.0 mm 0.00 in0.0 mm
09:30 AM 70.5°F21.4°C 62.2°F16.8°C 75% 2.0 mph NW3.2 kmh NW 6.0 mph9.7 kmh 30.07 in1018.3 mb 0.00 in0.0 mm 0.00 in0.0 mm 0.00 in0.0 mm
09:45 AM 71.4°F21.9°C 62.3°F16.8°C 73% 1.0 mph WNW1.6 kmh WNW 6.0 mph9.7 kmh 30.08 in1018.6 mb 0.00 in0.0 mm 0.00 in0.0 mm 0.00 in0.0 mm
10:00 AM 72.3°F22.4°C 62.4°F16.9°C 71% 2.0 mph WNW3.2 kmh WNW 6.0 mph9.7 kmh 30.08 in1018.6 mb 0.00 in0.0 mm 0.00 in0.0 mm 0.00 in0.0 mm
10:15 AM 72.7°F22.6°C 62.7°F17.1°C 71% 1.0 mph WNW1.6 kmh WNW 5.0 mph8.0 kmh 30.08 in1018.6 mb 0.00 in0.0 mm 0.00 in0.0 mm 0.00 in0.0 mm
10:30 AM 72.1°F22.3°C 62.2°F16.8°C 71% 3.0 mph W4.8 kmh W 8.0 mph12.9 kmh 30.08 in1018.6 mb 0.00 in0.0 mm 0.00 in0.0 mm 0.00 in0.0 mm
10:45 AM 72.1°F22.3°C 61.8°F16.6°C 70% 2.0 mph W3.2 kmh W 6.0 mph9.7 kmh 30.08 in1018.6 mb 0.00 in0.0 mm 0.00 in0.0 mm 0.00 in0.0 mm
11:00 AM 73.0°F22.8°C 62.3°F16.8°C 69% 2.0 mph NW3.2 kmh NW 6.0 mph9.7 kmh 30.08 in1018.6 mb 0.00 in0.0 mm 0.00 in0.0 mm 0.00 in0.0 mm
11:15 AM 73.9°F23.3°C 62.7°F17.1°C 68% 2.0 mph NNW3.2 kmh NNW 6.0 mph9.7 kmh 30.07 in1018.3 mb 0.00 in0.0 mm 0.00 in0.0 mm 0.00 in0.0 mm
11:30 AM 74.7°F23.7°C 62.1°F16.7°C 65% 3.0 mph NNW4.8 kmh NNW 8.0 mph12.9 kmh 30.07 in1018.3 mb 0.00 in0.0 mm 0.00 in0.0 mm 0.00 in0.0 mm
11:45 AM 74.5°F23.6°C 61.5°F16.4°C 64% 2.0 mph WNW3.2 kmh WNW 6.0 mph9.7 kmh 30.07 in1018.3 mb 0.00 in0.0 mm 0.00 in0.0 mm 0.00 in0.0 mm
12:00 PM 75.0°F23.9°C 62.5°F16.9°C 65% 2.0 mph WNW3.2 kmh WNW 6.0 mph9.7 kmh 30.07 in1018.3 mb 0.00 in0.0 mm 0.00 in0.0 mm 0.00 in0.0 mm
12:15 PM 74.7°F23.7°C 62.1°F16.7°C 65% 2.0 mph NW3.2 kmh NW 6.0 mph9.7 kmh 30.07 in1018.3 mb 0.00 in0.0 mm 0.00 in0.0 mm 0.00 in0.0 mm
12:30 PM 73.9°F23.3°C 61.9°F16.6°C 66% 1.0 mph NNW1.6 kmh NNW 5.0 mph8.0 kmh 30.06 in1017.9 mb 0.00 in0.0 mm 0.00 in0.0 mm 0.00 in0.0 mm
12:45 PM 74.7°F23.7°C 62.5°F16.9°C 66% Calm Calm 3.0 mph4.8 kmh 30.06 in1017.9 mb 0.00 in0.0 mm 0.00 in0.0 mm 0.00 in0.0 mm
01:00 PM 75.4°F24.1°C 64.1°F17.8°C 68% 1.0 mph N1.6 kmh N 4.0 mph6.4 kmh 30.06 in1017.9 mb 0.00 in0.0 mm 0.00 in0.0 mm 0.00 in0.0 mm
01:15 PM 75.6°F24.2°C 63.4°F17.4°C 66% 1.0 mph NNE1.6 kmh NNE 4.0 mph6.4 kmh 30.06 in1017.9 mb 0.00 in0.0 mm 0.00 in0.0 mm 0.00 in0.0 mm
01:30 PM 75.7°F24.3°C 64.0°F17.8°C 67% 1.0 mph E1.6 kmh E 5.0 mph8.0 kmh 30.06 in1017.9 mb 0.00 in0.0 mm 0.00 in0.0 mm 0.00 in0.0 mm
01:45 PM 75.0°F23.9°C 64.2°F17.9°C 69% 1.0 mph E1.6 kmh E 6.0 mph9.7 kmh 30.06 in1017.9 mb 0.00 in0.0 mm 0.00 in0.0 mm 0.00 in0.0 mm
02:00 PM 74.7°F23.7°C 65.0°F18.3°C 72% 1.0 mph E1.6 kmh E 3.0 mph4.8 kmh 30.06 in1017.9 mb 0.00 in0.0 mm 0.00 in0.0 mm 0.00 in0.0 mm
02:15 PM 75.7°F24.3°C 65.7°F18.7°C 71% 4.0 mph E6.4 kmh E 8.0 mph12.9 kmh 30.05 in1017.6 mb 0.00 in0.0 mm 0.00 in0.0 mm 0.00 in0.0 mm
02:30 PM 77.2°F25.1°C 65.8°F18.8°C 68% 3.0 mph E4.8 kmh E 10.0 mph16.1 kmh 30.05 in1017.6 mb 0.00 in0.0 mm 0.00 in0.0 mm 0.00 in0.0 mm
02:45 PM 76.3°F24.6°C 65.8°F18.8°C 70% 3.0 mph E4.8 kmh E 8.0 mph12.9 kmh 30.05 in1017.6 mb 0.00 in0.0 mm 0.00 in0.0 mm 0.00 in0.0 mm
03:00 PM 76.6°F24.8°C 65.3°F18.5°C 68% 2.0 mph SE3.2 kmh SE 7.0 mph11.3 kmh 30.05 in1017.6 mb 0.00 in0.0 mm 0.00 in0.0 mm 0.00 in0.0 mm
03:15 PM 75.7°F24.3°C 64.8°F18.2°C 69% 1.0 mph SE1.6 kmh SE 5.0 mph8.0 kmh 30.05 in1017.6 mb 0.00 in0.0 mm 0.00 in0.0 mm 0.00 in0.0 mm
03:30 PM 76.6°F24.8°C 65.7°F18.7°C 69% 3.0 mph SE4.8 kmh SE 8.0 mph12.9 kmh 30.04 in1017.3 mb 0.00 in0.0 mm 0.00 in0.0 mm 0.00 in0.0 mm
03:45 PM 77.7°F25.4°C 65.9°F18.8°C 67% 4.0 mph S6.4 kmh S 10.0 mph16.1 kmh 30.04 in1017.3 mb 0.00 in0.0 mm 0.00 in0.0 mm 0.00 in0.0 mm
04:00 PM 76.1°F24.5°C 65.2°F18.4°C 69% 7.0 mph SSW11.3 kmh SSW 11.0 mph17.7 kmh 30.04 in1017.3 mb 0.00 in0.0 mm 0.00 in0.0 mm 0.00 in0.0 mm
04:15 PM 75.6°F24.2°C 65.5°F18.6°C 71% 4.0 mph S6.4 kmh S 7.0 mph11.3 kmh 30.03 in1016.9 mb 0.00 in0.0 mm 0.00 in0.0 mm 0.00 in0.0 mm
04:30 PM 75.0°F23.9°C 65.8°F18.8°C 73% 5.0 mph S8.0 kmh S 12.0 mph19.3 kmh 30.03 in1016.9 mb 0.00 in0.0 mm 0.00 in0.0 mm 0.00 in0.0 mm
04:45 PM 74.5°F23.6°C 65.6°F18.7°C 74% 4.0 mph S6.4 kmh S 7.0 mph11.3 kmh 30.03 in1016.9 mb 0.00 in0.0 mm 0.00 in0.0 mm 0.00 in0.0 mm
05:00 PM 73.9°F23.3°C 65.5°F18.6°C 75% 4.0 mph SSE6.4 kmh SSE 8.0 mph12.9 kmh 30.03 in1016.9 mb 0.00 in0.0 mm 0.00 in0.0 mm 0.00 in0.0 mm
05:15 PM 73.2°F22.9°C 64.8°F18.2°C 75% 5.0 mph S8.0 kmh S 11.0 mph17.7 kmh 30.03 in1016.9 mb 0.00 in0.0 mm 0.00 in0.0 mm 0.00 in0.0 mm
05:30 PM 72.5°F22.5°C 64.9°F18.3°C 77% 4.0 mph SSE6.4 kmh SSE 10.0 mph16.1 kmh 30.03 in1016.9 mb 0.00 in0.0 mm 0.00 in0.0 mm 0.00 in0.0 mm
05:45 PM 72.5°F22.5°C 66.0°F18.9°C 80% 3.0 mph SSE4.8 kmh SSE 7.0 mph11.3 kmh 30.03 in1016.9 mb 0.00 in0.0 mm 0.00 in0.0 mm 0.00 in0.0 mm
06:00 PM 73.6°F23.1°C 67.0°F19.4°C 80% 3.0 mph SSE4.8 kmh SSE 7.0 mph11.3 kmh 30.02 in1016.6 mb 0.00 in0.0 mm 0.00 in0.0 mm 0.00 in0.0 mm
06:15 PM 73.2°F22.9°C 67.4°F19.7°C 82% 3.0 mph SSE4.8 kmh SSE 7.0 mph11.3 kmh 30.02 in1016.6 mb 0.00 in0.0 mm 0.00 in0.0 mm 0.00 in0.0 mm
06:30 PM 72.1°F22.3°C 67.0°F19.4°C 84% 3.0 mph SSE4.8 kmh SSE 6.0 mph9.7 kmh 30.03 in1016.9 mb 0.00 in0.0 mm 0.00 in0.0 mm 0.00 in0.0 mm
06:45 PM 71.2°F21.8°C 66.8°F19.3°C 86% 2.0 mph SSE3.2 kmh SSE 6.0 mph9.7 kmh 30.03 in1016.9 mb 0.00 in0.0 mm 0.00 in0.0 mm 0.00 in0.0 mm
07:00 PM 70.3°F21.3°C 66.6°F19.2°C 88% 2.0 mph SSE3.2 kmh SSE 6.0 mph9.7 kmh 30.03 in1016.9 mb 0.00 in0.0 mm 0.00 in0.0 mm 0.00 in0.0 mm
07:15 PM 69.6°F20.9°C 66.6°F19.2°C 90% 2.0 mph SSE3.2 kmh SSE 4.0 mph6.4 kmh 30.03 in1016.9 mb 0.00 in0.0 mm 0.00 in0.0 mm 0.00 in0.0 mm
07:30 PM 68.9°F20.5°C 66.2°F19.0°C 91% Calm Calm 2.0 mph3.2 kmh 30.04 in1017.3 mb 0.00 in0.0 mm 0.00 in0.0 mm 0.00 in0.0 mm
07:45 PM 68.4°F20.2°C 65.9°F18.8°C 92% 1.0 mph SSE1.6 kmh SSE 3.0 mph4.8 kmh 30.04 in1017.3 mb 0.00 in0.0 mm 0.00 in0.0 mm 0.00 in0.0 mm
08:00 PM 67.6°F19.8°C 65.5°F18.6°C 93% 1.0 mph SSE1.6 kmh SSE 3.0 mph4.8 kmh 30.04 in1017.3 mb 0.00 in0.0 mm 0.00 in0.0 mm 0.00 in0.0 mm
08:15 PM 67.3°F19.6°C 65.5°F18.6°C 94% Calm Calm 2.0 mph3.2 kmh 30.04 in1017.3 mb 0.00 in0.0 mm 0.00 in0.0 mm 0.00 in0.0 mm
08:30 PM 67.1°F19.5°C 65.3°F18.5°C 94% Calm Calm 1.0 mph1.6 kmh 30.04 in1017.3 mb 0.00 in0.0 mm 0.00 in0.0 mm 0.00 in0.0 mm
08:45 PM 66.7°F19.3°C 65.3°F18.5°C 95% Calm Calm 1.0 mph1.6 kmh 30.04 in1017.3 mb 0.00 in0.0 mm 0.00 in0.0 mm 0.00 in0.0 mm
09:00 PM 66.7°F19.3°C 65.3°F18.5°C 95% 1.0 mph SSE1.6 kmh SSE 2.0 mph3.2 kmh 30.04 in1017.3 mb 0.00 in0.0 mm 0.00 in0.0 mm 0.00 in0.0 mm
09:15 PM 66.4°F19.1°C 65.2°F18.4°C 96% Calm Calm 2.0 mph3.2 kmh 30.04 in1017.3 mb 0.00 in0.0 mm 0.00 in0.0 mm 0.00 in0.0 mm
09:30 PM 66.6°F19.2°C 65.1°F18.4°C 95% 2.0 mph SSE3.2 kmh SSE 7.0 mph11.3 kmh 30.04 in1017.3 mb 0.00 in0.0 mm 0.00 in0.0 mm 0.00 in0.0 mm
09:45 PM 66.4°F19.1°C 65.2°F18.4°C 96% 4.0 mph S6.4 kmh S 7.0 mph11.3 kmh 30.05 in1017.6 mb 0.00 in0.0 mm 0.00 in0.0 mm 0.00 in0.0 mm
10:00 PM 66.4°F19.1°C 65.2°F18.4°C 96% 2.0 mph S3.2 kmh S 6.0 mph9.7 kmh 30.05 in1017.6 mb 0.00 in0.0 mm 0.00 in0.0 mm 0.00 in0.0 mm
10:15 PM 66.0°F18.9°C 64.8°F18.2°C 96% 2.0 mph S3.2 kmh S 5.0 mph8.0 kmh 30.05 in1017.6 mb 0.00 in0.0 mm 0.00 in0.0 mm 0.00 in0.0 mm
10:30 PM 66.0°F18.9°C 64.8°F18.2°C 96% 2.0 mph S3.2 kmh S 5.0 mph8.0 kmh 30.04 in1017.3 mb 0.00 in0.0 mm 0.00 in0.0 mm 0.00 in0.0 mm
10:45 PM 65.8°F18.8°C 65.0°F18.3°C 97% 1.0 mph S1.6 kmh S 4.0 mph6.4 kmh 30.04 in1017.3 mb 0.00 in0.0 mm 0.00 in0.0 mm 0.00 in0.0 mm
11:00 PM 65.7°F18.7°C 64.8°F18.2°C 97% 2.0 mph S3.2 kmh S 5.0 mph8.0 kmh 30.05 in1017.6 mb 0.00 in0.0 mm 0.00 in0.0 mm 0.00 in0.0 mm
11:15 PM 65.3°F18.5°C 64.4°F18.0°C 97% 1.0 mph S1.6 kmh S 3.0 mph4.8 kmh 30.04 in1017.3 mb 0.00 in0.0 mm 0.00 in0.0 mm 0.00 in0.0 mm
11:30 PM 65.1°F18.4°C 64.2°F17.9°C 97% 1.0 mph S1.6 kmh S 3.0 mph4.8 kmh 30.04 in1017.3 mb 0.00 in0.0 mm 0.00 in0.0 mm 0.00 in0.0 mm
11:45 PM 64.8°F18.2°C 64.8°F18.2°C 100% Calm Calm 3.0 mph4.8 kmh 30.04 in1017.3 mb 0.00 in0.0 mm 0.00 in0.0 mm 0.00 in0.0 mm